Time;durP1;ratioP1;P1;durP2;ratioP2;P2;SDS_P1;SDS_P2;PMS_P1;PMS_P2;Temp;Humidity;BMP_temperature;BMP_pressure;BME280_temperature;BME280_humidity;BME280_pressure;Samples;Min_cycle;Max_cycle;Signal;HPM_P1;HPM_P2
2022/02/22 00:00:14;;;;;;;22.80;4.88;;;;;;;5.23;100.00;101851.72;5043518;28;20088;-75
2022/02/22 00:02:43;;;;;;;21.88;4.82;;;;;;;5.24;100.00;101858.78;5036749;28;20076;-77
2022/02/22 00:05:19;;;;;;;22.17;4.28;;;;;;;5.16;100.00;101856.09;5038299;28;20047;-76
2022/02/22 00:07:46;;;;;;;27.17;4.53;;;;;;;5.14;100.00;101854.28;5041527;28;20155;-77
2022/02/22 00:10:16;;;;;;;24.15;4.25;;;;;;;5.11;100.00;101871.06;5040558;28;20136;-76
2022/02/22 00:12:44;;;;;;;22.83;4.13;;;;;;;5.10;100.00;101863.97;5039224;28;20372;-76
2022/02/22 00:15:12;;;;;;;24.40;4.18;;;;;;;5.07;100.00;101855.13;5040478;28;20483;-76
2022/02/22 00:17:40;;;;;;;22.17;5.05;;;;;;;5.02;100.00;101852.44;5039743;28;20052;-74
2022/02/22 00:20:10;;;;;;;25.60;4.93;;;;;;;5.13;100.00;101861.38;5041142;28;20512;-75
2022/02/22 00:22:38;;;;;;;28.58;6.13;;;;;;;5.17;100.00;101884.31;5041057;28;20049;-75
2022/02/22 00:25:11;;;;;;;28.73;5.07;;;;;;;5.10;100.00;101889.56;5041696;28;20071;-76
2022/02/22 00:27:41;;;;;;;23.10;5.50;;;;;;;5.09;100.00;101877.19;5039917;28;20107;-76
2022/02/22 00:30:10;;;;;;;20.60;5.07;;;;;;;5.03;100.00;101892.16;5040862;28;20136;-76
2022/02/22 00:32:39;;;;;;;23.27;5.93;;;;;;;5.01;100.00;101900.97;5039950;28;20073;-75
2022/02/22 00:35:09;;;;;;;21.35;4.93;;;;;;;5.09;100.00;101907.22;5038898;28;20126;-76
2022/02/22 00:37:37;;;;;;;21.98;4.90;;;;;;;5.01;100.00;101895.69;5038944;28;20626;-76
2022/02/22 00:40:06;;;;;;;19.60;4.47;;;;;;;5.04;100.00;101899.22;5037454;28;20084;-75
2022/02/22 00:42:34;;;;;;;23.20;4.85;;;;;;;4.93;100.00;101903.53;5039338;28;20636;-75
2022/02/22 00:45:06;;;;;;;30.92;5.43;;;;;;;4.91;100.00;101904.41;5038321;28;20629;-76
2022/02/22 00:47:35;;;;;;;25.45;4.65;;;;;;;4.84;100.00;101908.75;5042631;28;20150;-75
2022/02/22 00:50:04;;;;;;;25.90;5.53;;;;;;;4.93;100.00;101898.25;5040386;28;20051;-75
2022/02/22 00:52:32;;;;;;;23.75;4.55;;;;;;;4.91;100.00;101901.75;5037429;28;20118;-75
2022/02/22 00:55:00;;;;;;;20.70;4.38;;;;;;;4.98;100.00;101901.81;5039904;28;20092;-75
2022/02/22 00:57:28;;;;;;;25.75;4.50;;;;;;;4.94;100.00;101900.03;5039262;28;20132;-76
2022/02/22 00:59:56;;;;;;;26.40;4.43;;;;;;;4.84;100.00;101909.63;5040763;28;20386;-76
2022/02/22 01:02:25;;;;;;;21.23;4.20;;;;;;;4.85;100.00;101907.88;5035062;28;20934;-75
2022/02/22 01:04:53;;;;;;;22.95;4.60;;;;;;;4.84;100.00;101907.00;5041714;28;20137;-76
2022/02/22 01:07:21;;;;;;;22.70;4.03;;;;;;;4.85;100.00;101905.22;5037204;28;20132;-76
2022/02/22 01:09:50;;;;;;;23.73;4.40;;;;;;;4.93;100.00;101908.81;5034110;28;20045;-76
2022/02/22 01:12:19;;;;;;;27.05;5.20;;;;;;;4.80;100.00;101905.19;5038761;28;20037;-76
2022/02/22 01:15:11;;;;;;;20.23;3.70;;;;;;;4.72;100.00;101898.09;5036059;28;20059;-76
2022/02/22 01:17:40;;;;;;;20.13;5.15;;;;;;;4.75;100.00;101906.00;5037873;28;20141;-76
2022/02/22 01:20:09;;;;;;;19.60;4.30;;;;;;;4.66;100.00;101915.63;5041601;28;20144;-75
2022/02/22 01:22:40;;;;;;;26.30;5.15;;;;;;;4.73;100.00;101926.28;5038870;28;20276;-75
2022/02/22 01:25:09;;;;;;;23.58;5.45;;;;;;;4.58;100.00;101941.13;5039573;28;20084;-76
2022/02/22 01:27:38;;;;;;;24.40;4.57;;;;;;;4.58;100.00;101933.19;5037663;28;20424;-76
2022/02/22 01:30:08;;;;;;;23.45;4.72;;;;;;;4.55;100.00;101924.34;5036196;28;20045;-76
2022/02/22 01:32:37;;;;;;;16.80;3.95;;;;;;;4.60;100.00;101922.66;5038521;28;20049;-76
2022/02/22 01:35:08;;;;;;;26.55;5.72;;;;;;;4.54;100.00;101919.94;5039015;28;20135;-76
2022/02/22 01:37:36;;;;;;;25.00;5.57;;;;;;;4.40;100.00;101925.94;5037853;28;20596;-76
2022/02/22 01:40:08;;;;;;;24.58;4.85;;;;;;;4.48;100.00;101929.56;5038138;28;20061;-76
2022/02/22 01:42:36;;;;;;;23.50;4.90;;;;;;;4.43;100.00;101926.00;5039325;28;20144;-76
2022/02/22 01:45:09;;;;;;;24.27;4.07;;;;;;;4.38;100.00;101926.81;5044674;28;20057;-76
2022/02/22 01:47:37;;;;;;;24.27;4.40;;;;;;;4.37;100.00;101935.59;5038796;28;20052;-76
2022/02/22 01:50:09;;;;;;;29.90;5.03;;;;;;;4.38;100.00;101937.38;5038945;28;20045;-76
2022/02/22 01:52:37;;;;;;;20.92;4.38;;;;;;;4.36;100.00;101936.47;5033585;28;20154;-76
2022/02/22 01:55:06;;;;;;;18.48;3.80;;;;;;;4.34;100.00;101947.00;5037566;28;20834;-75
2022/02/22 01:57:35;;;;;;;20.70;4.75;;;;;;;4.39;100.00;101939.16;5040697;28;20059;-76
2022/02/22 02:00:08;;;;;;;26.67;4.68;;;;;;;4.35;100.00;101948.78;5037720;28;20044;-76
2022/02/22 02:02:37;;;;;;;20.92;5.50;;;;;;;4.26;100.00;101948.72;5033848;28;20045;-75
2022/02/22 02:05:07;;;;;;;29.90;4.55;;;;;;;4.37;100.00;101939.13;5038225;28;20041;-76
2022/02/22 02:07:35;;;;;;;19.02;3.90;;;;;;;4.31;100.00;101936.44;5039226;28;20041;-76
2022/02/22 02:10:04;;;;;;;18.02;3.67;;;;;;;4.29;100.00;101939.06;5038274;28;20048;-76
2022/02/22 02:12:36;;;;;;;17.02;3.47;;;;;;;4.28;100.00;101947.84;5037365;28;20514;-76
2022/02/22 02:15:07;;;;;;;15.48;4.22;;;;;;;4.30;100.00;101947.84;5038689;28;20183;-75
2022/02/22 02:17:35;;;;;;;24.08;4.30;;;;;;;4.34;100.00;101941.72;5036626;28;20356;-76
2022/02/22 02:20:06;;;;;;;21.83;4.15;;;;;;;4.33;100.00;101937.34;5042151;28;20079;-77
2022/02/22 02:22:37;;;;;;;16.73;4.55;;;;;;;4.41;100.00;101922.44;5037974;28;20122;-77
2022/02/22 02:25:07;;;;;;;18.55;4.32;;;;;;;4.35;100.00;101935.59;5039618;28;20049;-76
2022/02/22 02:27:35;;;;;;;13.23;3.05;;;;;;;4.26;100.00;101935.50;5037151;28;20045;-77
2022/02/22 02:30:04;;;;;;;24.95;4.53;;;;;;;4.26;100.00;101930.22;5036308;28;20144;-76
2022/02/22 02:32:32;;;;;;;14.55;3.95;;;;;;;4.29;100.00;101928.47;5036267;28;20122;-76
2022/02/22 02:35:00;;;;;;;25.15;3.78;;;;;;;4.32;100.00;101929.38;5036136;28;20095;-76
2022/02/22 02:37:28;;;;;;;17.40;3.50;;;;;;;4.20;100.00;101936.28;5036664;28;20053;-77
2022/02/22 02:39:57;;;;;;;19.80;3.50;;;;;;;4.27;100.00;101935.50;5035290;28;20095;-77
2022/02/22 02:42:24;;;;;;;22.05;4.50;;;;;;;4.22;100.00;101924.00;5038685;28;20056;-76
2022/02/22 02:44:52;;;;;;;17.17;4.80;;;;;;;4.22;100.00;101926.66;5035850;28;20046;-77
2022/02/22 02:47:20;;;;;;;27.20;4.93;;;;;;;4.22;100.00;101923.09;5037656;28;20553;-76
2022/02/22 02:49:47;;;;;;;16.50;3.83;;;;;;;4.23;100.00;101924.88;5038509;28;20152;-77
2022/02/22 02:52:15;;;;;;;21.02;4.40;;;;;;;4.14;100.00;101930.94;5036990;28;20111;-74
2022/02/22 02:54:47;;;;;;;11.27;3.10;;;;;;;4.21;100.00;101930.16;5036454;28;20569;-75
2022/02/22 02:57:16;;;;;;;19.58;3.47;;;;;;;4.20;100.00;101931.00;5037300;28;20045;-77
2022/02/22 02:59:46;;;;;;;15.15;3.47;;;;;;;4.16;100.00;101933.63;5036862;28;20501;-75
2022/02/22 03:02:13;;;;;;;25.27;3.78;;;;;;;4.06;100.00;101935.25;5035485;28;20147;-75
2022/02/22 03:04:41;;;;;;;20.00;4.18;;;;;;;4.04;100.00;101931.72;5035756;28;20051;-77
2022/02/22 03:07:09;;;;;;;21.27;4.05;;;;;;;4.15;100.00;101937.13;5039815;28;20041;-77
2022/02/22 03:09:37;;;;;;;19.33;3.88;;;;;;;4.09;100.00;101941.47;5037062;28;20469;-75
2022/02/22 03:12:07;;;;;;;18.08;3.85;;;;;;;4.03;100.00;101944.00;5037617;28;20079;-75
2022/02/22 03:14:36;;;;;;;17.58;3.70;;;;;;;4.01;100.00;101942.22;5034571;28;20424;-75
2022/02/22 03:17:04;;;;;;;34.15;4.72;;;;;;;3.97;100.00;101943.03;5039307;28;20041;-75
2022/02/22 03:19:32;;;;;;;15.85;3.28;;;;;;;3.91;100.00;101939.44;5035001;28;20320;-75
2022/02/22 03:22:00;;;;;;;16.05;4.60;;;;;;;3.85;100.00;101936.75;5038941;28;20136;-75
2022/02/22 03:24:28;;;;;;;21.40;4.10;;;;;;;3.84;100.00;101937.59;5035682;28;20088;-75
2022/02/22 03:26:55;;;;;;;15.95;6.35;;;;;;;3.75;100.00;101932.22;5034187;28;20539;-75
2022/02/22 03:29:23;;;;;;;18.17;4.10;;;;;;;3.72;100.00;101927.75;5034858;28;20114;-75
2022/02/22 03:31:52;;;;;;;21.52;3.85;;;;;;;3.68;100.00;101927.72;5036808;28;20041;-77
2022/02/22 03:34:21;;;;;;;19.83;4.82;;;;;;;3.69;100.00;101932.13;5035920;28;20060;-75
2022/02/22 03:36:49;;;;;;;14.95;3.65;;;;;;;3.59;100.00;101927.56;5038666;28;20138;-76
2022/02/22 03:39:17;;;;;;;20.27;3.90;;;;;;;3.52;100.00;101935.44;5036796;28;20661;-77
2022/02/22 03:41:45;;;;;;;22.08;3.35;;;;;;;3.48;100.00;101935.34;5037030;28;20084;-76
2022/02/22 03:44:24;;;;;;;18.90;3.60;;;;;;;3.49;100.00;101937.09;5039449;28;20053;-77
2022/02/22 03:46:55;;;;;;;23.90;5.07;;;;;;;3.46;100.00;101943.25;5039563;28;20037;-76
2022/02/22 03:49:22;;;;;;;21.38;3.72;;;;;;;3.43;100.00;101937.03;5043102;28;20056;-76
2022/02/22 03:51:52;;;;;;;20.85;3.75;;;;;;;3.38;100.00;101936.97;5041674;28;20048;-77
2022/02/22 03:54:20;;;;;;;14.73;3.40;;;;;;;3.33;100.00;101939.53;5039104;28;20053;-76
2022/02/22 03:56:48;;;;;;;16.13;3.13;;;;;;;3.25;100.00;101935.91;5039432;28;20053;-76
2022/02/22 03:59:15;;;;;;;13.95;3.55;;;;;;;3.20;100.00;101937.56;5043467;28;20519;-76
2022/02/22 04:01:43;;;;;;;20.60;3.88;;;;;;;3.15;100.00;101934.88;5038104;28;20049;-76
2022/02/22 04:04:13;;;;;;;20.23;4.65;;;;;;;3.07;100.00;101933.84;5041075;28;20255;-76
2022/02/22 04:06:41;;;;;;;18.30;3.80;;;;;;;3.03;100.00;101939.94;5037742;28;20075;-76
2022/02/22 04:09:12;;;;;;;16.42;3.30;;;;;;;3.02;100.00;101945.19;5042428;28;20041;-76
2022/02/22 04:11:40;;;;;;;21.35;4.00;;;;;;;2.96;100.00;101944.22;5039550;28;20136;-76
2022/02/22 04:14:11;;;;;;;21.63;4.57;;;;;;;2.97;100.00;101940.72;5039046;28;20425;-77
2022/02/22 04:16:42;;;;;;;18.77;4.70;;;;;;;2.93;100.00;101936.25;5039206;28;20061;-77
2022/02/22 04:19:14;;;;;;;20.75;3.83;;;;;;;2.92;100.00;101945.00;5037911;28;20473;-76
2022/02/22 04:21:43;;;;;;;20.77;4.53;;;;;;;2.87;100.00;101946.69;5040869;28;20053;-76
2022/02/22 04:24:11;;;;;;;12.75;3.63;;;;;;;2.85;100.00;101951.06;5039110;28;20076;-77
2022/02/22 04:26:39;;;;;;;12.88;3.58;;;;;;;2.80;100.00;101944.81;5038611;28;20063;-78
2022/02/22 04:29:08;;;;;;;18.63;4.00;;;;;;;2.81;100.00;101949.22;5036979;28;20045;-76
2022/02/22 04:31:38;;;;;;;18.55;3.95;;;;;;;2.77;100.00;101945.63;5040738;28;20224;-76
2022/02/22 04:34:07;;;;;;;11.48;3.60;;;;;;;2.71;100.00;101942.03;5039168;28;20516;-76
2022/02/22 04:36:37;;;;;;;16.60;4.20;;;;;;;2.69;100.00;101936.72;5035219;28;20052;-77
2022/02/22 04:39:06;;;;;;;13.68;3.10;;;;;;;2.66;100.00;101938.41;5036888;28;20056;-77
2022/02/22 04:41:37;;;;;;;11.60;3.50;;;;;;;2.61;100.00;101944.47;5036405;28;20048;-77
2022/02/22 04:44:05;;;;;;;12.75;3.75;;;;;;;2.65;100.00;101942.78;5040217;28;20044;-76
2022/02/22 04:46:34;;;;;;;18.15;4.82;;;;;;;2.63;100.00;101947.16;5039952;28;20084;-76
2022/02/22 04:49:08;;;;;;;17.20;3.28;;;;;;;2.64;100.00;101948.03;5038660;28;20455;-76
2022/02/22 04:51:38;;;;;;;20.30;4.65;;;;;;;2.66;100.00;101947.19;5041042;28;20045;-77
2022/02/22 04:54:06;;;;;;;14.30;3.58;;;;;;;2.64;100.00;101953.28;5037393;28;20052;-76
2022/02/22 04:56:35;;;;;;;18.95;3.63;;;;;;;2.77;100.00;101961.44;5040380;28;20049;-77
2022/02/22 04:59:05;;;;;;;17.67;3.70;;;;;;;2.80;100.00;101948.31;5038721;28;20047;-75
2022/02/22 05:01:35;;;;;;;19.83;4.20;;;;;;;2.95;100.00;101952.09;5038274;28;20130;-78
2022/02/22 05:04:03;;;;;;;17.02;3.97;;;;;;;2.99;100.00;101957.44;5037343;28;20304;-77
2022/02/22 05:06:32;;;;;;;15.07;4.07;;;;;;;3.07;100.00;101947.03;5038250;28;20481;-77
2022/02/22 05:09:02;;;;;;;23.50;4.05;;;;;;;3.18;100.00;101944.56;5038213;28;20057;-77
2022/02/22 05:11:30;;;;;;;20.27;4.30;;;;;;;3.27;100.00;101942.09;5035187;28;20088;-76
2022/02/22 05:13:58;;;;;;;14.95;3.80;;;;;;;3.32;100.00;101934.22;5039985;28;20053;-75
2022/02/22 05:16:26;;;;;;;13.25;3.47;;;;;;;3.40;100.00;101927.31;5038807;28;20064;-75
2022/02/22 05:18:55;;;;;;;13.00;4.10;;;;;;;3.46;100.00;101927.41;5037106;28;20060;-76
2022/02/22 05:21:23;;;;;;;25.55;4.90;;;;;;;3.44;100.00;101923.88;5035875;28;20063;-75
2022/02/22 05:23:51;;;;;;;12.07;3.65;;;;;;;3.49;100.00;101927.47;5037007;28;20156;-78
2022/02/22 05:26:20;;;;;;;15.82;3.92;;;;;;;3.46;100.00;101929.19;5039522;28;20084;-75
2022/02/22 05:28:48;;;;;;;21.58;4.13;;;;;;;3.44;100.00;101923.88;5036312;28;20457;-75
2022/02/22 05:31:18;;;;;;;13.52;3.72;;;;;;;3.38;100.00;101928.16;5040429;28;20164;-75
2022/02/22 05:33:46;;;;;;;14.60;3.95;;;;;;;3.36;100.00;101914.94;5039040;28;20088;-77
2022/02/22 05:36:14;;;;;;;13.55;3.65;;;;;;;3.29;100.00;101910.44;5037636;28;20084;-76
2022/02/22 05:39:10;;;;;;;14.23;3.67;;;;;;;3.22;100.00;101901.56;5038000;28;20083;-77
2022/02/22 05:41:40;;;;;;;17.83;3.75;;;;;;;3.20;100.00;101915.56;5039348;28;20068;-76
2022/02/22 05:44:10;;;;;;;14.35;3.60;;;;;;;3.14;100.00;101906.69;5037175;28;20329;-76
2022/02/22 05:46:38;;;;;;;13.43;3.55;;;;;;;3.15;100.00;101904.94;5036949;28;20053;-76
2022/02/22 05:49:06;;;;;;;12.60;3.00;;;;;;;3.12;100.00;101913.72;5043288;28;20127;-77
2022/02/22 05:52:05;;;;;;;19.90;3.80;;;;;;;3.21;100.00;101918.22;5039212;28;20056;-76
2022/02/22 05:54:33;;;;;;;11.85;4.22;;;;;;;3.30;100.00;101915.75;5035897;28;20056;-76
2022/02/22 05:57:04;;;;;;;17.17;3.90;;;;;;;3.25;100.00;101903.34;5039291;28;20049;-76
2022/02/22 05:59:33;;;;;;;14.63;5.13;;;;;;;3.26;100.00;101905.13;5032081;28;20048;-75
2022/02/22 06:02:06;;;;;;;26.50;4.70;;;;;;;3.26;100.00;101897.22;5040321;28;20049;-76
2022/02/22 06:04:34;;;;;;;26.13;4.70;;;;;;;3.26;100.00;101895.44;5036008;28;20064;-76
2022/02/22 06:07:05;;;;;;;19.95;4.13;;;;;;;3.31;100.00;101893.75;5035983;28;20617;-76
2022/02/22 06:09:33;;;;;;;19.52;4.00;;;;;;;3.34;100.00;101888.53;5036903;28;20045;-76
2022/02/22 06:12:04;;;;;;;20.77;4.63;;;;;;;3.37;100.00;101895.59;5035208;28;20131;-76
2022/02/22 06:14:34;;;;;;;15.60;3.95;;;;;;;3.40;100.00;101900.91;5038277;28;20053;-77
2022/02/22 06:17:02;;;;;;;16.63;4.68;;;;;;;3.42;100.00;101890.41;5038485;28;20186;-77
2022/02/22 06:19:30;;;;;;;20.92;4.28;;;;;;;3.41;100.00;101883.38;5037548;28;20063;-76
2022/02/22 06:21:58;;;;;;;25.73;4.25;;;;;;;3.41;100.00;101883.38;5032405;28;20124;-76
2022/02/22 06:24:26;;;;;;;20.02;4.10;;;;;;;3.46;100.00;101895.75;5038949;28;20621;-76
2022/02/22 06:26:54;;;;;;;19.17;4.82;;;;;;;3.54;100.00;101887.91;5042169;28;20091;-76
2022/02/22 06:29:24;;;;;;;20.00;4.63;;;;;;;3.56;100.00;101883.56;5039751;28;20049;-76
2022/02/22 06:31:52;;;;;;;16.63;3.40;;;;;;;3.57;100.00;101873.88;5037009;28;20624;-76
2022/02/22 06:34:21;;;;;;;26.83;5.35;;;;;;;3.60;100.00;101877.47;5035757;28;20060;-76
2022/02/22 06:36:49;;;;;;;16.48;4.13;;;;;;;3.67;100.00;101867.88;5039392;28;20486;-77
2022/02/22 06:39:17;;;;;;;22.67;5.68;;;;;;;3.79;100.00;101872.41;5037990;28;20151;-76
2022/02/22 06:41:44;;;;;;;21.42;5.80;;;;;;;3.83;100.00;101877.75;5040682;28;20056;-76
2022/02/22 06:44:15;;;;;;;19.05;5.18;;;;;;;3.97;100.00;101870.00;5038053;28;20179;-77
2022/02/22 06:46:46;;;;;;;34.03;6.60;;;;;;;4.09;100.00;101862.22;5039187;28;20056;-76
2022/02/22 06:49:16;;;;;;;19.42;5.18;;;;;;;4.23;100.00;101874.69;5034908;28;20125;-77
2022/02/22 06:51:47;;;;;;;23.05;4.35;;;;;;;4.27;100.00;101860.63;5039084;28;20465;-77
2022/02/22 06:54:18;;;;;;;18.00;4.75;;;;;;;4.35;100.00;101856.31;5031674;28;20049;-76
2022/02/22 06:56:52;;;;;;;17.90;4.55;;;;;;;4.45;100.00;101854.66;5034976;28;20053;-75
2022/02/22 06:59:25;;;;;;;17.77;5.07;;;;;;;4.60;100.00;101862.72;5034059;28;20126;-76
2022/02/22 07:01:53;;;;;;;24.10;5.25;;;;;;;4.61;100.00;101860.94;5038212;28;20065;-76
2022/02/22 07:04:21;;;;;;;24.40;4.78;;;;;;;4.67;100.00;101859.25;5037121;28;20053;-76
2022/02/22 07:06:49;;;;;;;17.30;4.20;;;;;;;4.71;100.00;101861.91;5034579;28;20092;-76
2022/02/22 07:09:18;;;;;;;23.77;6.25;;;;;;;4.68;100.00;101852.19;5040369;28;20492;-75
2022/02/22 07:11:45;;;;;;;21.55;4.43;;;;;;;4.79;100.00;101850.53;5038454;28;20276;-76
2022/02/22 07:14:13;;;;;;;27.05;6.55;;;;;;;4.83;100.00;101840.84;5038307;28;20045;-76
2022/02/22 07:16:42;;;;;;;22.10;4.85;;;;;;;4.83;100.00;101832.91;5043041;28;20316;-76
2022/02/22 07:19:10;;;;;;;30.17;5.32;;;;;;;4.83;100.00;101825.88;5037806;28;20128;-76
2022/02/22 07:21:38;;;;;;;27.50;4.75;;;;;;;4.84;100.00;101837.34;5039809;28;20091;-76
2022/02/22 07:24:06;;;;;;;19.73;4.57;;;;;;;4.89;100.00;101822.41;5040056;28;20052;-76
2022/02/22 07:26:37;;;;;;;23.33;6.75;;;;;;;4.98;100.00;101818.94;5038826;28;21458;-76
2022/02/22 07:29:05;;;;;;;26.27;5.65;;;;;;;5.01;100.00;101809.25;5038120;28;20124;-75
2022/02/22 07:31:33;;;;;;;25.90;6.10;;;;;;;5.11;100.00;101817.22;5038969;28;20049;-76
2022/02/22 07:34:02;;;;;;;19.80;5.65;;;;;;;5.19;100.00;101813.78;5045691;28;20063;-76
2022/02/22 07:36:30;;;;;;;18.27;6.50;;;;;;;5.24;100.00;101811.13;5036163;28;20045;-76
2022/02/22 07:38:58;;;;;;;15.60;4.57;;;;;;;5.32;100.00;101806.78;5043096;28;20080;-76
2022/02/22 07:41:25;;;;;;;17.67;5.45;;;;;;;5.37;100.00;101814.75;5039781;28;20060;-76
2022/02/22 07:43:53;;;;;;;24.80;6.00;;;;;;;5.42;100.00;101813.88;5041604;28;20577;-76
2022/02/22 07:46:21;;;;;;;29.15;7.07;;;;;;;5.50;100.00;101802.44;5036744;28;20077;-75
2022/02/22 07:48:50;;;;;;;24.90;5.47;;;;;;;5.51;100.00;101799.81;5041060;28;20496;-76
2022/02/22 07:51:20;;;;;;;19.55;5.30;;;;;;;5.57;100.00;101802.47;5041423;28;20132;-75
2022/02/22 07:53:50;;;;;;;19.08;5.50;;;;;;;5.60;100.00;101799.84;5033021;28;20811;-75
2022/02/22 07:56:18;;;;;;;28.83;6.38;;;;;;;5.61;100.00;101803.38;5038932;28;20045;-76
2022/02/22 07:58:47;;;;;;;24.83;5.65;;;;;;;5.64;100.00;101791.94;5048027;28;20052;-76
2022/02/22 08:01:15;;;;;;;26.08;6.47;;;;;;;5.68;100.00;101799.00;5038172;28;20057;-75
2022/02/22 08:03:44;;;;;;;20.77;6.10;;;;;;;5.75;100.00;101785.75;5039396;28;20136;-76
2022/02/22 08:06:13;;;;;;;20.67;5.90;;;;;;;5.74;100.00;101793.72;5040699;28;20076;-76
2022/02/22 08:08:43;;;;;;;22.17;5.57;;;;;;;5.74;100.00;101801.66;5037588;28;20045;-75
2022/02/22 08:11:11;;;;;;;27.58;4.90;;;;;;;5.76;100.00;101787.53;5040776;28;20559;-75
2022/02/22 08:13:38;;;;;;;30.50;6.18;;;;;;;5.79;100.00;101776.97;5033285;28;20049;-75
2022/02/22 08:16:06;;;;;;;28.45;6.18;;;;;;;5.79;100.00;101769.00;5035130;28;20052;-75
2022/02/22 08:18:34;;;;;;;22.85;6.10;;;;;;;5.83;100.00;101761.94;5036940;28;20063;-76
2022/02/22 08:21:03;;;;;;;21.10;5.78;;;;;;;5.87;100.00;101760.19;5037815;28;20052;-76
2022/02/22 08:23:31;;;;;;;32.60;6.30;;;;;;;5.88;100.00;101752.25;5037715;28;20434;-75
2022/02/22 08:26:02;;;;;;;18.38;4.88;;;;;;;5.92;100.00;101756.66;5038813;28;20052;-75
2022/02/22 08:28:29;;;;;;;24.42;5.70;;;;;;;5.99;100.00;101741.69;5037553;28;20128;-76
2022/02/22 08:30:58;;;;;;;24.42;5.32;;;;;;;6.07;100.00;101741.72;5034639;28;20048;-76
2022/02/22 08:33:26;;;;;;;19.48;4.10;;;;;;;6.09;100.00;101747.91;5040077;28;20135;-75
2022/02/22 08:35:56;;;;;;;26.65;6.38;;;;;;;6.14;100.00;101738.19;5040556;28;20413;-75
2022/02/22 08:38:25;;;;;;;21.73;4.88;;;;;;;6.18;100.00;101729.38;5040908;28;20049;-76
2022/02/22 08:40:53;;;;;;;20.70;5.80;;;;;;;6.23;100.00;101732.91;5042316;28;20053;-76
2022/02/22 08:43:23;;;;;;;26.45;5.57;;;;;;;6.33;100.00;101725.81;5036934;28;20159;-77
2022/02/22 08:45:51;;;;;;;21.83;5.35;;;;;;;6.42;100.00;101720.53;5038219;28;20483;-76
2022/02/22 08:48:23;;;;;;;21.33;5.18;;;;;;;6.53;100.00;101715.19;5040471;28;20606;-77
2022/02/22 08:50:52;;;;;;;26.98;5.43;;;;;;;6.61;100.00;101707.25;5040028;28;20067;-75
2022/02/22 08:53:20;;;;;;;22.73;5.07;;;;;;;6.72;100.00;101709.00;5039875;28;20072;-75
2022/02/22 08:55:48;;;;;;;19.17;5.05;;;;;;;6.87;100.00;101713.34;5041783;28;20057;-77
2022/02/22 08:58:15;;;;;;;18.05;5.20;;;;;;;6.87;100.00;101696.56;5040007;28;20147;-76
2022/02/22 09:00:46;;;;;;;24.92;6.25;;;;;;;6.83;100.00;101700.13;5041997;28;20041;-76
2022/02/22 09:03:14;;;;;;;19.83;5.75;;;;;;;6.73;100.00;101683.34;5037061;28;20872;-76
2022/02/22 09:05:42;;;;;;;29.30;6.40;;;;;;;6.57;100.00;101687.78;5037544;28;20484;-77
2022/02/22 09:08:10;;;;;;;24.63;5.22;;;;;;;6.58;100.00;101678.94;5036981;28;20493;-76
2022/02/22 09:10:39;;;;;;;21.98;5.40;;;;;;;6.52;100.00;101682.50;5040280;28;20045;-76
2022/02/22 09:13:07;;;;;;;17.13;5.35;;;;;;;6.52;100.00;101679.84;5038204;28;20559;-76
2022/02/22 09:15:36;;;;;;;22.95;5.47;;;;;;;6.40;100.00;101682.50;5040671;28;20053;-76
2022/02/22 09:18:10;;;;;;;20.77;5.70;;;;;;;6.42;100.00;101682.50;5037017;28;20504;-76
2022/02/22 09:20:39;;;;;;;25.88;6.07;;;;;;;6.45;100.00;101677.19;5038412;28;20426;-76
2022/02/22 09:23:08;;;;;;;19.83;5.85;;;;;;;6.45;100.00;101670.16;5037718;28;20045;-76
2022/02/22 09:25:39;;;;;;;22.85;6.78;;;;;;;6.57;100.00;101677.16;5036605;28;20073;-76
2022/02/22 09:28:10;;;;;;;28.73;6.18;;;;;;;6.78;100.00;101684.22;5037551;28;20097;-76
2022/02/22 09:30:38;;;;;;;22.83;5.93;;;;;;;6.84;100.00;101685.94;5039511;28;20045;-76
2022/02/22 09:33:09;;;;;;;22.55;6.00;;;;;;;6.85;100.00;101693.91;5037783;28;20084;-76
2022/02/22 09:35:39;;;;;;;22.67;6.15;;;;;;;6.86;100.00;101700.09;5038299;28;20152;-76
2022/02/22 09:38:07;;;;;;;21.55;5.68;;;;;;;6.80;100.00;101705.44;5038676;28;20087;-76
2022/02/22 09:40:35;;;;;;;15.48;4.80;;;;;;;6.80;100.00;101703.66;5040716;28;20262;-76
2022/02/22 09:43:04;;;;;;;24.92;6.38;;;;;;;6.79;100.00;101688.59;5040097;28;20465;-76
2022/02/22 09:45:32;;;;;;;29.27;5.90;;;;;;;6.78;100.00;101672.72;5040860;28;20049;-76
2022/02/22 09:48:04;;;;;;;28.70;6.93;;;;;;;6.84;100.00;101667.38;5036695;28;20187;-77
2022/02/22 09:50:57;;;;;;;29.33;6.70;;;;;;;6.89;100.00;101670.91;5034862;28;20095;-76
2022/02/22 09:53:25;;;;;;;24.23;6.07;;;;;;;6.91;100.00;101680.63;5033032;28;20809;-76
2022/02/22 09:55:55;;;;;;;28.40;5.43;;;;;;;6.84;100.00;101681.50;5039287;28;20175;-76
2022/02/22 09:58:23;;;;;;;32.15;7.10;;;;;;;6.84;100.00;101684.16;5038748;28;20049;-77
2022/02/22 10:00:58;;;;;;;24.75;7.18;;;;;;;6.81;100.00;101668.28;5039695;28;20044;-77
2022/02/22 10:03:26;;;;;;;28.38;6.55;;;;;;;6.69;100.00;101657.69;5039118;28;20562;-78
2022/02/22 10:05:57;;;;;;;23.83;7.63;;;;;;;6.65;100.00;101667.44;5038732;28;20045;-76
2022/02/22 10:08:28;;;;;;;33.20;6.68;;;;;;;6.63;100.00;101653.31;5037378;28;20059;-78
2022/02/22 10:11:05;;;;;;;31.42;7.32;;;;;;;6.59;100.00;101648.00;5040936;28;20408;-76
2022/02/22 10:13:33;;;;;;;27.42;7.53;;;;;;;6.53;100.00;101646.25;5038981;28;20217;-75
2022/02/22 10:16:07;;;;;;;24.60;8.30;;;;;;;6.49;100.00;101634.78;5038023;28;20052;-75
2022/02/22 10:18:45;;;;;;;24.88;7.80;;;;;;;6.52;100.00;101637.44;5036117;28;20075;-74
2022/02/22 10:21:15;;;;;;;28.13;9.52;;;;;;;6.50;100.00;101623.28;5034681;28;20238;-72
2022/02/22 10:23:43;;;;;;;35.63;9.23;;;;;;;6.49;100.00;101618.00;5038389;28;20642;-70
2022/02/22 10:26:20;;;;;;;31.02;9.05;;;;;;;6.49;100.00;101608.25;5037534;28;20057;-71
2022/02/22 10:28:49;;;;;;;26.08;8.23;;;;;;;6.51;100.00;101616.22;5039185;28;20044;-71
2022/02/22 10:31:17;;;;;;;25.60;8.52;;;;;;;6.54;100.00;101600.31;5039037;28;20072;-70
2022/02/22 10:33:45;;;;;;;22.90;8.73;;;;;;;6.54;100.00;101606.47;5039340;28;20080;-71
2022/02/22 10:36:37;;;;;;;30.88;9.75;;;;;;;6.58;100.00;101602.03;5035053;28;20497;-70
2022/02/22 10:39:06;;;;;;;26.67;10.30;;;;;;;6.68;100.00;101597.59;5031779;28;20516;-70
2022/02/22 10:41:39;;;;;;;23.98;10.40;;;;;;;6.73;100.00;101615.25;5034341;28;20044;-70
2022/02/22 10:44:09;;;;;;;22.38;9.52;;;;;;;6.76;100.00;101618.78;5035156;28;20144;-69
2022/02/22 10:46:45;;;;;;;31.58;10.80;;;;;;;6.82;100.00;101619.63;5035470;28;20053;-69
2022/02/22 10:49:15;;;;;;;24.13;9.18;;;;;;;6.86;100.00;101609.88;5036226;28;20512;-68
2022/02/22 10:51:47;;;;;;;30.25;10.18;;;;;;;6.91;100.00;101600.13;5037978;28;20324;-69
2022/02/22 10:54:17;;;;;;;34.78;10.68;;;;;;;6.94;100.00;101589.50;5035168;28;20048;-69
2022/02/22 10:56:47;;;;;;;20.35;8.82;;;;;;;7.04;100.00;101579.75;5037711;28;20089;-69
2022/02/22 10:59:18;;;;;;;34.60;8.27;;;;;;;7.09;100.00;101586.78;5039338;28;20139;-69
2022/02/22 11:01:48;;;;;;;26.95;8.60;;;;;;;7.15;100.00;101588.53;5039542;28;20048;-69
2022/02/22 11:04:17;;;;;;;27.92;7.45;;;;;;;7.20;100.00;101580.50;5038692;28;20054;-69
2022/02/22 11:06:47;;;;;;;24.95;8.45;;;;;;;7.19;100.00;101592.03;5046489;28;20049;-68
2022/02/22 11:09:18;;;;;;;25.35;8.35;;;;;;;7.28;100.00;101590.19;5039957;28;20053;-69
2022/02/22 11:11:51;;;;;;;20.92;7.75;;;;;;;7.33;100.00;101600.78;5035440;28;20049;-69
2022/02/22 11:14:26;;;;;;;31.75;9.63;;;;;;;7.34;100.00;101594.59;5040328;28;20073;-69
2022/02/22 11:16:57;;;;;;;26.48;7.93;;;;;;;7.42;100.00;101603.41;5039516;28;20045;-69
2022/02/22 11:19:28;;;;;;;27.73;8.93;;;;;;;7.53;100.00;101590.03;5041711;28;20136;-68
2022/02/22 11:22:09;;;;;;;30.33;9.18;;;;;;;7.65;100.00;101570.47;5035203;28;20045;-68
2022/02/22 11:25:02;;;;;;;21.63;8.23;;;;;;;7.79;100.00;101581.84;5039973;28;20516;-70
2022/02/22 11:27:32;;;;;;;25.73;7.45;;;;;;;7.83;100.00;101564.09;5038084;28;20056;-67